sensor_id;sensor_type;location;lat;lon;timestamp;temperature;humidity
7216;DHT22;3649;48.798;9.798;2022-08-06T00:02:23;24.10;99.90
7216;DHT22;3649;48.798;9.798;2022-08-06T00:04:55;24.20;99.90
7216;DHT22;3649;48.798;9.798;2022-08-06T00:07:24;24.20;99.90
7216;DHT22;3649;48.798;9.798;2022-08-06T00:09:55;24.30;99.90
7216;DHT22;3649;48.798;9.798;2022-08-06T00:12:29;24.30;99.90
7216;DHT22;3649;48.798;9.798;2022-08-06T00:15:00;24.30;99.90
7216;DHT22;3649;48.798;9.798;2022-08-06T00:17:42;24.30;99.90
7216;DHT22;3649;48.798;9.798;2022-08-06T00:20:13;24.40;99.90
7216;DHT22;3649;48.798;9.798;2022-08-06T00:22:58;24.30;99.90
7216;DHT22;3649;48.798;9.798;2022-08-06T00:25:27;24.30;99.90
7216;DHT22;3649;48.798;9.798;2022-08-06T00:28:00;24.30;99.90
7216;DHT22;3649;48.798;9.798;2022-08-06T00:30:35;24.30;99.90
7216;DHT22;3649;48.798;9.798;2022-08-06T00:33:02;24.20;99.90
7216;DHT22;3649;48.798;9.798;2022-08-06T00:35:30;24.20;99.90
7216;DHT22;3649;48.798;9.798;2022-08-06T00:37:56;24.10;99.90
7216;DHT22;3649;48.798;9.798;2022-08-06T00:40:27;24.10;99.90
7216;DHT22;3649;48.798;9.798;2022-08-06T00:43:00;24.10;99.90
7216;DHT22;3649;48.798;9.798;2022-08-06T00:45:35;24.10;99.90
7216;DHT22;3649;48.798;9.798;2022-08-06T00:48:07;24.10;99.90
7216;DHT22;3649;48.798;9.798;2022-08-06T00:50:54;24.10;99.90
7216;DHT22;3649;48.798;9.798;2022-08-06T00:53:21;24.10;99.90
7216;DHT22;3649;48.798;9.798;2022-08-06T00:55:49;24.10;99.90
7216;DHT22;3649;48.798;9.798;2022-08-06T00:58:26;24.20;99.90
7216;DHT22;3649;48.798;9.798;2022-08-06T01:00:53;24.20;99.90
7216;DHT22;3649;48.798;9.798;2022-08-06T01:03:20;24.20;99.90
7216;DHT22;3649;48.798;9.798;2022-08-06T01:05:53;24.20;99.90
7216;DHT22;3649;48.798;9.798;2022-08-06T01:08:42;24.30;99.90
7216;DHT22;3649;48.798;9.798;2022-08-06T01:11:11;24.20;99.90
7216;DHT22;3649;48.798;9.798;2022-08-06T01:13:38;24.20;99.90
7216;DHT22;3649;48.798;9.798;2022-08-06T01:16:48;24.20;99.90
7216;DHT22;3649;48.798;9.798;2022-08-06T01:27:44;24.10;99.90
7216;DHT22;3649;48.798;9.798;2022-08-06T01:30:17;24.10;99.90
7216;DHT22;3649;48.798;9.798;2022-08-06T01:33:00;24.10;99.90
7216;DHT22;3649;48.798;9.798;2022-08-06T01:35:39;24.10;99.90
7216;DHT22;3649;48.798;9.798;2022-08-06T01:38:27;24.20;99.90
7216;DHT22;3649;48.798;9.798;2022-08-06T01:40:58;24.20;99.90
7216;DHT22;3649;48.798;9.798;2022-08-06T01:43:28;24.10;99.90
7216;DHT22;3649;48.798;9.798;2022-08-06T01:46:15;24.10;99.90
7216;DHT22;3649;48.798;9.798;2022-08-06T01:48:43;24.10;99.90
7216;DHT22;3649;48.798;9.798;2022-08-06T01:51:11;24.00;99.90
7216;DHT22;3649;48.798;9.798;2022-08-06T01:54:00;24.00;99.90
7216;DHT22;3649;48.798;9.798;2022-08-06T01:56:36;23.90;99.90
7216;DHT22;3649;48.798;9.798;2022-08-06T01:59:38;23.90;99.90
7216;DHT22;3649;48.798;9.798;2022-08-06T02:02:08;23.90;99.90
7216;DHT22;3649;48.798;9.798;2022-08-06T02:04:46;23.90;99.90
7216;DHT22;3649;48.798;9.798;2022-08-06T02:07:22;23.80;99.90
7216;DHT22;3649;48.798;9.798;2022-08-06T02:10:11;23.80;99.90
7216;DHT22;3649;48.798;9.798;2022-08-06T02:12:40;23.90;99.90
7216;DHT22;3649;48.798;9.798;2022-08-06T02:15:16;23.90;99.90
7216;DHT22;3649;48.798;9.798;2022-08-06T02:17:50;23.90;99.90
7216;DHT22;3649;48.798;9.798;2022-08-06T02:20:41;24.00;99.90
7216;DHT22;3649;48.798;9.798;2022-08-06T02:23:21;24.50;99.90
7216;DHT22;3649;48.798;9.798;2022-08-06T02:25:51;24.00;99.90
7216;DHT22;3649;48.798;9.798;2022-08-06T02:28:21;23.90;99.90
7216;DHT22;3649;48.798;9.798;2022-08-06T02:30:53;23.90;99.90
7216;DHT22;3649;48.798;9.798;2022-08-06T02:33:21;23.90;99.90
7216;DHT22;3649;48.798;9.798;2022-08-06T02:36:15;23.90;99.90
7216;DHT22;3649;48.798;9.798;2022-08-06T02:39:19;23.90;99.90
7216;DHT22;3649;48.798;9.798;2022-08-06T02:42:12;24.10;99.90
7216;DHT22;3649;48.798;9.798;2022-08-06T02:47:33;24.10;99.90
7216;DHT22;3649;48.798;9.798;2022-08-06T02:50:27;24.00;99.90
7216;DHT22;3649;48.798;9.798;2022-08-06T02:53:02;23.90;99.90
7216;DHT22;3649;48.798;9.798;2022-08-06T02:55:59;23.80;99.90
7216;DHT22;3649;48.798;9.798;2022-08-06T02:58:39;23.80;99.90
7216;DHT22;3649;48.798;9.798;2022-08-06T03:01:26;23.80;99.90
7216;DHT22;3649;48.798;9.798;2022-08-06T03:04:06;23.80;99.90
7216;DHT22;3649;48.798;9.798;2022-08-06T03:06:35;23.90;99.90
7216;DHT22;3649;48.798;9.798;2022-08-06T03:09:05;23.90;99.90
7216;DHT22;3649;48.798;9.798;2022-08-06T03:11:35;23.90;99.90
7216;DHT22;3649;48.798;9.798;2022-08-06T03:14:05;23.80;99.90
7216;DHT22;3649;48.798;9.798;2022-08-06T03:16:54;23.80;99.90
7216;DHT22;3649;48.798;9.798;2022-08-06T03:19:25;23.80;99.90
7216;DHT22;3649;48.798;9.798;2022-08-06T03:22:13;23.80;99.90
7216;DHT22;3649;48.798;9.798;2022-08-06T03:25:01;23.70;99.90
7216;DHT22;3649;48.798;9.798;2022-08-06T03:27:30;23.70;99.90
7216;DHT22;3649;48.798;9.798;2022-08-06T03:30:15;23.70;99.90
7216;DHT22;3649;48.798;9.798;2022-08-06T03:33:00;23.70;99.90
7216;DHT22;3649;48.798;9.798;2022-08-06T03:35:49;23.70;99.90
7216;DHT22;3649;48.798;9.798;2022-08-06T03:38:20;23.60;99.90
7216;DHT22;3649;48.798;9.798;2022-08-06T03:40:55;23.60;99.90
7216;DHT22;3649;48.798;9.798;2022-08-06T03:43:22;23.50;99.90
7216;DHT22;3649;48.798;9.798;2022-08-06T03:45:58;23.50;99.90
7216;DHT22;3649;48.798;9.798;2022-08-06T03:48:33;23.50;99.90
7216;DHT22;3649;48.798;9.798;2022-08-06T03:51:10;23.40;99.90
7216;DHT22;3649;48.798;9.798;2022-08-06T03:53:40;23.50;99.90
7216;DHT22;3649;48.798;9.798;2022-08-06T03:56:20;23.50;99.90
7216;DHT22;3649;48.798;9.798;2022-08-06T03:58:58;23.50;99.90
7216;DHT22;3649;48.798;9.798;2022-08-06T04:01:32;23.40;99.90
7216;DHT22;3649;48.798;9.798;2022-08-06T04:04:09;23.40;99.90
7216;DHT22;3649;48.798;9.798;2022-08-06T04:06:54;23.40;99.90
7216;DHT22;3649;48.798;9.798;2022-08-06T04:09:24;23.30;99.90
7216;DHT22;3649;48.798;9.798;2022-08-06T04:12:12;23.30;99.90
7216;DHT22;3649;48.798;9.798;2022-08-06T04:14:59;23.30;99.90
7216;DHT22;3649;48.798;9.798;2022-08-06T04:17:31;23.30;99.90
7216;DHT22;3649;48.798;9.798;2022-08-06T04:19:59;23.30;99.90
7216;DHT22;3649;48.798;9.798;2022-08-06T04:22:28;23.30;99.90
7216;DHT22;3649;48.798;9.798;2022-08-06T04:25:15;23.30;99.90
7216;DHT22;3649;48.798;9.798;2022-08-06T04:27:44;23.30;99.90
7216;DHT22;3649;48.798;9.798;2022-08-06T04:30:21;23.20;99.90
7216;DHT22;3649;48.798;9.798;2022-08-06T04:32:52;23.20;99.90
7216;DHT22;3649;48.798;9.798;2022-08-06T04:35:30;23.30;99.90
7216;DHT22;3649;48.798;9.798;2022-08-06T04:38:20;23.20;99.90
7216;DHT22;3649;48.798;9.798;2022-08-06T04:40:55;23.20;99.90
7216;DHT22;3649;48.798;9.798;2022-08-06T04:43:23;23.20;99.90
7216;DHT22;3649;48.798;9.798;2022-08-06T04:46:11;23.20;99.90
7216;DHT22;3649;48.798;9.798;2022-08-06T04:48:44;23.20;99.90
7216;DHT22;3649;48.798;9.798;2022-08-06T04:51:14;23.20;99.90
7216;DHT22;3649;48.798;9.798;2022-08-06T04:54:04;23.20;99.90
7216;DHT22;3649;48.798;9.798;2022-08-06T04:56:32;23.10;99.90
7216;DHT22;3649;48.798;9.798;2022-08-06T04:59:08;23.00;99.90
7216;DHT22;3649;48.798;9.798;2022-08-06T05:01:36;23.00;99.90
7216;DHT22;3649;48.798;9.798;2022-08-06T05:04:23;23.00;99.90
7216;DHT22;3649;48.798;9.798;2022-08-06T05:07:00;23.00;99.90
7216;DHT22;3649;48.798;9.798;2022-08-06T05:09:29;23.00;99.90
7216;DHT22;3649;48.798;9.798;2022-08-06T05:12:31;23.00;99.90
7216;DHT22;3649;48.798;9.798;2022-08-06T05:15:00;23.00;99.90
7216;DHT22;3649;48.798;9.798;2022-08-06T05:17:35;23.00;99.90
7216;DHT22;3649;48.798;9.798;2022-08-06T05:20:09;23.00;99.90
7216;DHT22;3649;48.798;9.798;2022-08-06T05:22:58;23.00;99.90
7216;DHT22;3649;48.798;9.798;2022-08-06T05:25:31;23.00;99.90
7216;DHT22;3649;48.798;9.798;2022-08-06T05:28:03;23.00;99.90
7216;DHT22;3649;48.798;9.798;2022-08-06T05:30:42;23.00;99.90
7216;DHT22;3649;48.798;9.798;2022-08-06T05:33:11;22.90;99.90
7216;DHT22;3649;48.798;9.798;2022-08-06T05:35:42;22.80;99.90
7216;DHT22;3649;48.798;9.798;2022-08-06T05:38:28;22.80;99.90
7216;DHT22;3649;48.798;9.798;2022-08-06T05:40:58;22.80;99.90
7216;DHT22;3649;48.798;9.798;2022-08-06T05:43:27;22.90;99.90
7216;DHT22;3649;48.798;9.798;2022-08-06T05:46:16;22.80;99.90
7216;DHT22;3649;48.798;9.798;2022-08-06T05:51:48;22.80;99.90
7216;DHT22;3649;48.798;9.798;2022-08-06T05:54:30;22.90;99.90
7216;DHT22;3649;48.798;9.798;2022-08-06T05:57:15;23.00;99.90
7216;DHT22;3649;48.798;9.798;2022-08-06T06:00:05;22.90;99.90
7216;DHT22;3649;48.798;9.798;2022-08-06T06:02:56;22.90;99.90
7216;DHT22;3649;48.798;9.798;2022-08-06T06:05:29;22.90;99.90
7216;DHT22;3649;48.798;9.798;2022-08-06T06:08:16;22.90;99.90
7216;DHT22;3649;48.798;9.798;2022-08-06T06:11:07;22.90;99.90
7216;DHT22;3649;48.798;9.798;2022-08-06T06:13:37;22.90;99.90
7216;DHT22;3649;48.798;9.798;2022-08-06T06:16:31;22.80;99.90
7216;DHT22;3649;48.798;9.798;2022-08-06T06:19:33;22.80;99.90
7216;DHT22;3649;48.798;9.798;2022-08-06T06:22:15;22.80;99.90
7216;DHT22;3649;48.798;9.798;2022-08-06T06:24:54;22.80;99.90
7216;DHT22;3649;48.798;9.798;2022-08-06T06:33:39;22.90;99.90
7216;DHT22;3649;48.798;9.798;2022-08-06T06:36:39;22.90;99.90
7216;DHT22;3649;48.798;9.798;2022-08-06T06:39:30;23.00;99.90
7216;DHT22;3649;48.798;9.798;2022-08-06T06:42:13;23.00;99.90
7216;DHT22;3649;48.798;9.798;2022-08-06T06:47:59;23.00;99.90
7216;DHT22;3649;48.798;9.798;2022-08-06T06:50:40;23.10;99.90
7216;DHT22;3649;48.798;9.798;2022-08-06T06:53:09;23.20;99.90
7216;DHT22;3649;48.798;9.798;2022-08-06T06:55:45;23.30;99.90
7216;DHT22;3649;48.798;9.798;2022-08-06T07:01:04;23.50;99.90
7216;DHT22;3649;48.798;9.798;2022-08-06T07:03:52;23.50;99.90
7216;DHT22;3649;48.798;9.798;2022-08-06T07:06:21;23.50;99.90
7216;DHT22;3649;48.798;9.798;2022-08-06T07:09:09;23.60;99.60
7216;DHT22;3649;48.798;9.798;2022-08-06T07:12:01;23.70;99.20
7216;DHT22;3649;48.798;9.798;2022-08-06T07:14:32;23.70;99.20
7216;DHT22;3649;48.798;9.798;2022-08-06T07:17:03;23.70;99.20
7216;DHT22;3649;48.798;9.798;2022-08-06T07:19:52;23.70;99.30
7216;DHT22;3649;48.798;9.798;2022-08-06T07:22:22;23.80;99.00
7216;DHT22;3649;48.798;9.798;2022-08-06T07:24:56;23.80;99.10
7216;DHT22;3649;48.798;9.798;2022-08-06T07:27:28;23.80;99.00
7216;DHT22;3649;48.798;9.798;2022-08-06T07:30:11;23.80;99.00
7216;DHT22;3649;48.798;9.798;2022-08-06T07:32:42;23.80;98.90
7216;DHT22;3649;48.798;9.798;2022-08-06T07:35:16;23.90;98.60
7216;DHT22;3649;48.798;9.798;2022-08-06T07:37:54;24.00;98.00
7216;DHT22;3649;48.798;9.798;2022-08-06T07:40:43;23.90;97.80
7216;DHT22;3649;48.798;9.798;2022-08-06T07:43:21;23.80;97.50
7216;DHT22;3649;48.798;9.798;2022-08-06T07:46:01;23.80;97.30
7216;DHT22;3649;48.798;9.798;2022-08-06T07:48:35;23.80;97.10
7216;DHT22;3649;48.798;9.798;2022-08-06T07:51:04;23.90;97.00
7216;DHT22;3649;48.798;9.798;2022-08-06T07:53:35;24.00;96.90
7216;DHT22;3649;48.798;9.798;2022-08-06T07:56:24;24.20;96.80
7216;DHT22;3649;48.798;9.798;2022-08-06T07:58:52;24.30;96.40
7216;DHT22;3649;48.798;9.798;2022-08-06T08:01:24;24.30;96.10
7216;DHT22;3649;48.798;9.798;2022-08-06T08:04:05;24.30;96.00
7216;DHT22;3649;48.798;9.798;2022-08-06T08:07:02;25.30;96.20
7216;DHT22;3649;48.798;9.798;2022-08-06T08:09:33;24.40;95.70
7216;DHT22;3649;48.798;9.798;2022-08-06T08:12:23;24.30;95.50
7216;DHT22;3649;48.798;9.798;2022-08-06T08:15:03;24.20;95.50
7216;DHT22;3649;48.798;9.798;2022-08-06T08:17:32;24.30;95.30
7216;DHT22;3649;48.798;9.798;2022-08-06T08:20:05;24.30;95.10
7216;DHT22;3649;48.798;9.798;2022-08-06T08:22:43;24.20;95.10
7216;DHT22;3649;48.798;9.798;2022-08-06T08:25:17;24.20;94.80
7216;DHT22;3649;48.798;9.798;2022-08-06T08:28:05;24.10;94.70
7216;DHT22;3649;48.798;9.798;2022-08-06T08:30:42;24.10;94.60
7216;DHT22;3649;48.798;9.798;2022-08-06T08:33:13;24.10;94.40
7216;DHT22;3649;48.798;9.798;2022-08-06T08:35:45;24.10;94.20
7216;DHT22;3649;48.798;9.798;2022-08-06T08:38:28;24.10;94.40
7216;DHT22;3649;48.798;9.798;2022-08-06T08:41:19;24.10;94.00
7216;DHT22;3649;48.798;9.798;2022-08-06T08:43:55;24.10;94.20
7216;DHT22;3649;48.798;9.798;2022-08-06T08:46:34;24.30;93.90
7216;DHT22;3649;48.798;9.798;2022-08-06T08:49:05;24.30;94.00
7216;DHT22;3649;48.798;9.798;2022-08-06T08:51:36;24.40;94.00
7216;DHT22;3649;48.798;9.798;2022-08-06T08:54:11;24.50;93.40
7216;DHT22;3649;48.798;9.798;2022-08-06T08:56:45;24.60;92.80
7216;DHT22;3649;48.798;9.798;2022-08-06T08:59:35;24.60;92.80
7216;DHT22;3649;48.798;9.798;2022-08-06T09:02:23;24.70;93.00
7216;DHT22;3649;48.798;9.798;2022-08-06T09:04:53;24.70;92.30
7216;DHT22;3649;48.798;9.798;2022-08-06T09:07:24;24.80;92.20
7216;DHT22;3649;48.798;9.798;2022-08-06T09:10:02;24.80;92.30
7216;DHT22;3649;48.798;9.798;2022-08-06T09:12:30;24.80;92.20
7216;DHT22;3649;48.798;9.798;2022-08-06T09:15:00;24.80;91.80
7216;DHT22;3649;48.798;9.798;2022-08-06T09:17:29;24.80;91.90
7216;DHT22;3649;48.798;9.798;2022-08-06T09:20:16;24.90;92.00
7216;DHT22;3649;48.798;9.798;2022-08-06T09:22:44;25.00;91.80
7216;DHT22;3649;48.798;9.798;2022-08-06T09:25:46;25.00;91.90
7216;DHT22;3649;48.798;9.798;2022-08-06T09:31:11;25.00;91.70
7216;DHT22;3649;48.798;9.798;2022-08-06T09:36:48;24.90;91.20
7216;DHT22;3649;48.798;9.798;2022-08-06T09:39:32;24.80;91.70
7216;DHT22;3649;48.798;9.798;2022-08-06T09:42:57;24.80;91.40
7216;DHT22;3649;48.798;9.798;2022-08-06T09:45:25;24.90;91.10
7216;DHT22;3649;48.798;9.798;2022-08-06T09:48:09;24.80;91.20
7216;DHT22;3649;48.798;9.798;2022-08-06T09:50:47;24.80;91.30
7216;DHT22;3649;48.798;9.798;2022-08-06T09:53:17;24.80;91.40
7216;DHT22;3649;48.798;9.798;2022-08-06T09:55:48;24.80;90.90
7216;DHT22;3649;48.798;9.798;2022-08-06T09:58:31;24.90;91.20
7216;DHT22;3649;48.798;9.798;2022-08-06T10:01:18;24.90;90.70
7216;DHT22;3649;48.798;9.798;2022-08-06T10:03:49;24.90;90.60
7216;DHT22;3649;48.798;9.798;2022-08-06T10:06:35;24.80;90.70
7216;DHT22;3649;48.798;9.798;2022-08-06T10:09:17;24.80;91.20
7216;DHT22;3649;48.798;9.798;2022-08-06T10:12:24;24.90;91.10
7216;DHT22;3649;48.798;9.798;2022-08-06T10:14:53;25.00;91.40
7216;DHT22;3649;48.798;9.798;2022-08-06T10:17:22;25.10;90.90
7216;DHT22;3649;48.798;9.798;2022-08-06T10:20:06;25.20;90.90
7216;DHT22;3649;48.798;9.798;2022-08-06T10:22:35;25.40;90.80
7216;DHT22;3649;48.798;9.798;2022-08-06T10:25:04;25.20;90.60
7216;DHT22;3649;48.798;9.798;2022-08-06T10:27:39;25.20;90.80
7216;DHT22;3649;48.798;9.798;2022-08-06T10:30:09;25.10;90.80
7216;DHT22;3649;48.798;9.798;2022-08-06T10:32:47;25.20;90.80
7216;DHT22;3649;48.798;9.798;2022-08-06T10:35:20;25.30;90.40
7216;DHT22;3649;48.798;9.798;2022-08-06T10:37:55;25.20;90.30
7216;DHT22;3649;48.798;9.798;2022-08-06T10:40:23;25.30;90.60
7216;DHT22;3649;48.798;9.798;2022-08-06T10:43:03;25.30;90.50
7216;DHT22;3649;48.798;9.798;2022-08-06T10:45:34;25.70;90.30
7216;DHT22;3649;48.798;9.798;2022-08-06T10:48:16;25.40;90.10
7216;DHT22;3649;48.798;9.798;2022-08-06T10:51:07;25.40;90.30
7216;DHT22;3649;48.798;9.798;2022-08-06T10:53:36;25.50;90.20
7216;DHT22;3649;48.798;9.798;2022-08-06T10:56:24;25.50;90.10
7216;DHT22;3649;48.798;9.798;2022-08-06T10:58:59;25.50;90.10
7216;DHT22;3649;48.798;9.798;2022-08-06T11:04:12;25.50;90.00
7216;DHT22;3649;48.798;9.798;2022-08-06T11:15:37;25.50;89.60
7216;DHT22;3649;48.798;9.798;2022-08-06T11:18:08;25.50;90.00
7216;DHT22;3649;48.798;9.798;2022-08-06T11:20:43;25.60;90.00
7216;DHT22;3649;48.798;9.798;2022-08-06T11:26:02;25.70;89.70
7216;DHT22;3649;48.798;9.798;2022-08-06T11:30:59;25.70;89.20
7216;DHT22;3649;48.798;9.798;2022-08-06T11:36:06;25.70;89.10
7216;DHT22;3649;48.798;9.798;2022-08-06T11:44:05;25.60;88.90
7216;DHT22;3649;48.798;9.798;2022-08-06T11:46:39;25.70;89.40
7216;DHT22;3649;48.798;9.798;2022-08-06T11:51:48;25.80;89.10
7216;DHT22;3649;48.798;9.798;2022-08-06T11:54:59;25.80;89.20
7216;DHT22;3649;48.798;9.798;2022-08-06T11:57:27;25.90;88.70
7216;DHT22;3649;48.798;9.798;2022-08-06T12:00:13;25.90;88.70
7216;DHT22;3649;48.798;9.798;2022-08-06T12:07:46;26.00;88.50
7216;DHT22;3649;48.798;9.798;2022-08-06T12:10:18;26.00;88.50
7216;DHT22;3649;48.798;9.798;2022-08-06T12:12:55;26.00;88.10
7216;DHT22;3649;48.798;9.798;2022-08-06T12:18:13;26.10;87.80
7216;DHT22;3649;48.798;9.798;2022-08-06T12:20:53;26.10;88.10
7216;DHT22;3649;48.798;9.798;2022-08-06T12:23:23;26.10;88.30
7216;DHT22;3649;48.798;9.798;2022-08-06T12:26:10;26.20;88.20
7216;DHT22;3649;48.798;9.798;2022-08-06T12:28:38;26.40;88.60
7216;DHT22;3649;48.798;9.798;2022-08-06T12:31:05;26.60;87.80
7216;DHT22;3649;48.798;9.798;2022-08-06T12:33:52;26.60;87.40
7216;DHT22;3649;48.798;9.798;2022-08-06T12:36:19;26.60;87.00
7216;DHT22;3649;48.798;9.798;2022-08-06T12:39:02;26.60;87.20
7216;DHT22;3649;48.798;9.798;2022-08-06T12:41:37;26.40;87.20
7216;DHT22;3649;48.798;9.798;2022-08-06T12:44:14;26.40;87.00
7216;DHT22;3649;48.798;9.798;2022-08-06T12:47:14;26.40;87.60
7216;DHT22;3649;48.798;9.798;2022-08-06T12:49:41;26.50;88.50
7216;DHT22;3649;48.798;9.798;2022-08-06T12:52:17;26.40;86.10
7216;DHT22;3649;48.798;9.798;2022-08-06T12:54:55;26.50;86.80
7216;DHT22;3649;48.798;9.798;2022-08-06T12:57:24;26.50;86.50
7216;DHT22;3649;48.798;9.798;2022-08-06T13:00:13;26.50;86.80
7216;DHT22;3649;48.798;9.798;2022-08-06T13:02:41;26.50;87.20
7216;DHT22;3649;48.798;9.798;2022-08-06T13:05:13;26.50;86.80
7216;DHT22;3649;48.798;9.798;2022-08-06T13:07:41;26.60;86.60
7216;DHT22;3649;48.798;9.798;2022-08-06T13:10:12;26.60;86.80
7216;DHT22;3649;48.798;9.798;2022-08-06T13:13:02;26.60;86.80
7216;DHT22;3649;48.798;9.798;2022-08-06T13:15:59;26.60;87.30
7216;DHT22;3649;48.798;9.798;2022-08-06T13:18:27;26.70;86.90
7216;DHT22;3649;48.798;9.798;2022-08-06T13:21:16;26.80;86.20
7216;DHT22;3649;48.798;9.798;2022-08-06T13:23:49;26.70;85.60
7216;DHT22;3649;48.798;9.798;2022-08-06T13:26:27;26.70;85.50
7216;DHT22;3649;48.798;9.798;2022-08-06T13:29:21;26.70;85.40
7216;DHT22;3649;48.798;9.798;2022-08-06T13:32:12;26.80;85.70
7216;DHT22;3649;48.798;9.798;2022-08-06T13:35:01;26.80;85.70
7216;DHT22;3649;48.798;9.798;2022-08-06T13:37:49;26.80;86.10
7216;DHT22;3649;48.798;9.798;2022-08-06T13:40:41;26.80;85.10
7216;DHT22;3649;48.798;9.798;2022-08-06T13:43:40;26.90;86.40
7216;DHT22;3649;48.798;9.798;2022-08-06T13:46:23;26.80;86.30
7216;DHT22;3649;48.798;9.798;2022-08-06T13:48:57;26.90;86.40
7216;DHT22;3649;48.798;9.798;2022-08-06T13:51:28;26.80;85.80
7216;DHT22;3649;48.798;9.798;2022-08-06T13:54:02;26.90;85.60
7216;DHT22;3649;48.798;9.798;2022-08-06T13:56:45;26.80;85.70
7216;DHT22;3649;48.798;9.798;2022-08-06T13:59:18;26.90;85.60
7216;DHT22;3649;48.798;9.798;2022-08-06T14:01:47;26.90;85.60
7216;DHT22;3649;48.798;9.798;2022-08-06T14:04:16;26.90;85.50
7216;DHT22;3649;48.798;9.798;2022-08-06T14:06:46;27.00;85.30
7216;DHT22;3649;48.798;9.798;2022-08-06T14:09:15;27.00;85.20
7216;DHT22;3649;48.798;9.798;2022-08-06T14:12:00;27.00;85.10
7216;DHT22;3649;48.798;9.798;2022-08-06T14:14:29;27.00;85.70
7216;DHT22;3649;48.798;9.798;2022-08-06T14:16:58;27.10;85.00
7216;DHT22;3649;48.798;9.798;2022-08-06T14:19:28;27.20;86.10
7216;DHT22;3649;48.798;9.798;2022-08-06T14:22:16;27.10;85.90
7216;DHT22;3649;48.798;9.798;2022-08-06T14:24:44;27.20;85.80
7216;DHT22;3649;48.798;9.798;2022-08-06T14:27:19;27.10;85.30
7216;DHT22;3649;48.798;9.798;2022-08-06T14:29:50;27.10;85.00
7216;DHT22;3649;48.798;9.798;2022-08-06T14:32:37;27.10;84.70
7216;DHT22;3649;48.798;9.798;2022-08-06T14:35:06;27.10;84.40
7216;DHT22;3649;48.798;9.798;2022-08-06T14:37:33;27.00;84.70
7216;DHT22;3649;48.798;9.798;2022-08-06T14:40:19;27.00;85.00
7216;DHT22;3649;48.798;9.798;2022-08-06T14:43:24;27.00;85.00
7216;DHT22;3649;48.798;9.798;2022-08-06T14:46:25;27.00;84.70
7216;DHT22;3649;48.798;9.798;2022-08-06T14:48:59;27.00;84.80
7216;DHT22;3649;48.798;9.798;2022-08-06T14:51:37;27.00;84.90
7216;DHT22;3649;48.798;9.798;2022-08-06T14:54:24;27.00;84.60
7216;DHT22;3649;48.798;9.798;2022-08-06T14:57:02;27.10;85.20
7216;DHT22;3649;48.798;9.798;2022-08-06T14:59:43;27.10;85.10
7216;DHT22;3649;48.798;9.798;2022-08-06T15:02:22;27.20;84.60
7216;DHT22;3649;48.798;9.798;2022-08-06T15:04:53;27.30;83.80
7216;DHT22;3649;48.798;9.798;2022-08-06T15:07:21;27.30;83.80
7216;DHT22;3649;48.798;9.798;2022-08-06T15:09:53;27.30;84.20
7216;DHT22;3649;48.798;9.798;2022-08-06T15:12:32;27.30;84.50
7216;DHT22;3649;48.798;9.798;2022-08-06T15:15:09;27.40;82.70
7216;DHT22;3649;48.798;9.798;2022-08-06T15:17:39;27.30;83.50
7216;DHT22;3649;48.798;9.798;2022-08-06T15:20:27;27.20;83.60
7216;DHT22;3649;48.798;9.798;2022-08-06T15:22:54;27.10;83.90
7216;DHT22;3649;48.798;9.798;2022-08-06T15:25:23;27.10;84.00
7216;DHT22;3649;48.798;9.798;2022-08-06T15:28:10;27.20;84.50
7216;DHT22;3649;48.798;9.798;2022-08-06T15:30:38;27.30;83.90
7216;DHT22;3649;48.798;9.798;2022-08-06T15:33:05;27.30;83.40
7216;DHT22;3649;48.798;9.798;2022-08-06T15:35:38;27.30;82.80
7216;DHT22;3649;48.798;9.798;2022-08-06T15:38:18;27.30;83.10
7216;DHT22;3649;48.798;9.798;2022-08-06T15:40:48;27.30;83.00
7216;DHT22;3649;48.798;9.798;2022-08-06T15:43:15;27.30;83.60
7216;DHT22;3649;48.798;9.798;2022-08-06T15:45:48;27.30;82.80
7216;DHT22;3649;48.798;9.798;2022-08-06T15:48:21;27.40;82.50
7216;DHT22;3649;48.798;9.798;2022-08-06T15:50:56;27.30;82.80
7216;DHT22;3649;48.798;9.798;2022-08-06T15:53:43;27.40;82.10
7216;DHT22;3649;48.798;9.798;2022-08-06T15:56:24;27.30;82.80
7216;DHT22;3649;48.798;9.798;2022-08-06T15:59:13;27.30;82.90
7216;DHT22;3649;48.798;9.798;2022-08-06T16:01:46;27.30;81.40
7216;DHT22;3649;48.798;9.798;2022-08-06T16:04:28;27.30;81.00
7216;DHT22;3649;48.798;9.798;2022-08-06T16:07:02;27.30;81.00
7216;DHT22;3649;48.798;9.798;2022-08-06T16:09:32;27.20;81.20
7216;DHT22;3649;48.798;9.798;2022-08-06T16:12:19;27.20;81.10
7216;DHT22;3649;48.798;9.798;2022-08-06T16:14:47;27.20;81.50
7216;DHT22;3649;48.798;9.798;2022-08-06T16:17:25;27.30;82.10
7216;DHT22;3649;48.798;9.798;2022-08-06T16:20:16;27.20;80.90
7216;DHT22;3649;48.798;9.798;2022-08-06T16:22:51;27.20;80.90
7216;DHT22;3649;48.798;9.798;2022-08-06T16:25:20;27.20;81.10
7216;DHT22;3649;48.798;9.798;2022-08-06T16:27:48;27.20;81.70
7216;DHT22;3649;48.798;9.798;2022-08-06T16:30:18;27.20;81.10
7216;DHT22;3649;48.798;9.798;2022-08-06T16:32:45;27.10;80.50
7216;DHT22;3649;48.798;9.798;2022-08-06T16:35:15;27.10;82.00
7216;DHT22;3649;48.798;9.798;2022-08-06T16:37:46;27.10;81.80
7216;DHT22;3649;48.798;9.798;2022-08-06T16:40:19;27.10;81.00
7216;DHT22;3649;48.798;9.798;2022-08-06T16:42:48;27.10;81.40
7216;DHT22;3649;48.798;9.798;2022-08-06T16:45:16;27.10;81.80
7216;DHT22;3649;48.798;9.798;2022-08-06T16:47:45;27.10;82.30
7216;DHT22;3649;48.798;9.798;2022-08-06T16:50:32;27.10;82.00
7216;DHT22;3649;48.798;9.798;2022-08-06T16:53:08;27.10;81.60
7216;DHT22;3649;48.798;9.798;2022-08-06T16:55:55;27.10;82.20
7216;DHT22;3649;48.798;9.798;2022-08-06T16:58:22;27.10;81.90
7216;DHT22;3649;48.798;9.798;2022-08-06T17:01:04;27.00;82.30
7216;DHT22;3649;48.798;9.798;2022-08-06T17:03:51;27.00;81.30
7216;DHT22;3649;48.798;9.798;2022-08-06T17:06:25;27.00;81.10
7216;DHT22;3649;48.798;9.798;2022-08-06T17:09:13;27.00;80.10
7216;DHT22;3649;48.798;9.798;2022-08-06T17:11:43;27.00;81.20
7216;DHT22;3649;48.798;9.798;2022-08-06T17:14:26;26.90;81.40
7216;DHT22;3649;48.798;9.798;2022-08-06T17:16:58;27.00;81.50
7216;DHT22;3649;48.798;9.798;2022-08-06T17:19:33;27.00;81.10
7216;DHT22;3649;48.798;9.798;2022-08-06T17:22:02;27.00;81.10
7216;DHT22;3649;48.798;9.798;2022-08-06T17:24:32;27.00;80.10
7216;DHT22;3649;48.798;9.798;2022-08-06T17:27:09;26.90;80.40
7216;DHT22;3649;48.798;9.798;2022-08-06T17:29:40;26.90;80.50
7216;DHT22;3649;48.798;9.798;2022-08-06T17:32:13;26.90;80.90
7216;DHT22;3649;48.798;9.798;2022-08-06T17:34:59;26.90;80.40
7216;DHT22;3649;48.798;9.798;2022-08-06T17:37:26;26.90;79.90
7216;DHT22;3649;48.798;9.798;2022-08-06T17:40:12;26.90;79.30
7216;DHT22;3649;48.798;9.798;2022-08-06T17:42:44;26.90;80.50
7216;DHT22;3649;48.798;9.798;2022-08-06T17:45:14;26.90;81.00
7216;DHT22;3649;48.798;9.798;2022-08-06T17:47:41;26.90;80.60
7216;DHT22;3649;48.798;9.798;2022-08-06T17:50:17;26.90;81.40
7216;DHT22;3649;48.798;9.798;2022-08-06T17:52:46;26.90;81.40
7216;DHT22;3649;48.798;9.798;2022-08-06T17:55:13;26.80;80.80
7216;DHT22;3649;48.798;9.798;2022-08-06T17:57:45;26.80;80.90
7216;DHT22;3649;48.798;9.798;2022-08-06T18:00:32;26.80;80.80
7216;DHT22;3649;48.798;9.798;2022-08-06T18:03:03;26.80;81.20
7216;DHT22;3649;48.798;9.798;2022-08-06T18:05:30;26.70;80.90
7216;DHT22;3649;48.798;9.798;2022-08-06T18:08:03;26.80;81.10
7216;DHT22;3649;48.798;9.798;2022-08-06T18:10:47;26.70;81.40
7216;DHT22;3649;48.798;9.798;2022-08-06T18:13:16;26.70;80.00
7216;DHT22;3649;48.798;9.798;2022-08-06T18:15:46;26.70;80.50